Monmouth, OR (97361)

1:07 AM PST on January 26, 2015 (GMT -0800)
APRSWXNET Dallas OR US | Change Station
CLOSE
Current Station
Personal Weather Station
Location: Monmouth, OR
Elevation: 459 ft
Nearby Weather Stations
Active Advisory: Dense Fog Advisory Active Notice: Record Report

Elev 459 ft 44.86 °N, 123.34 °W | Updated 34 minutes ago

Overcast
Overcast
42 °F
Feels Like 42 °F
N
0
Wind Variable Wind from SW
Gusts 0.0 mph

Today
High -- | Low -- °F
--% Chance of Precip.
Yesterday
High -- | Low -- °F
Precip. -- in
7:38 AM 5:13 PM
Waxing Crescent, 41% visible
Pressure 29.98 in
Visibility 1.2 miles
Clouds Overcast 200 ft
Windchill 42 °F
Dew Point 41 °F
Humidity 98%
Rainfall 0.01 in
Snow Depth Not available.
UV 0 out of 12
Pollen 3.00 out of 12
Air Quality Not available.
Flu Activity Not available.
METAR KSLE 260856Z AUTO 14004KT 1 1/4SM R31/4000VP6000FT BR OVC002 07/06 A2998 RMK AO2 SLP152 T00670061 58006

More Conditions Fewer Conditions

Pressure 29.98 in
Visibility 1.2 miles
Clouds Overcast 200 ft
Windchill 42 °F
Dew Point 41 °F
Humidity 98%
Rainfall 0.01 in
Snow Depth Not available.
UV 0 out of 12
Pollen 3.00 out of 12
Air Quality Not available.
Flu Activity Not available.
METAR KSLE 260856Z AUTO 14004KT 1 1/4SM R31/4000VP6000FT BR OVC002 07/06 A2998 RMK AO2 SLP152 T00670061 58006

More Conditions Fewer Conditions

10-Day Weather Forecast

Almanac

Astronomy

Jan. 26, 2015 Rise Set
Actual Time
Civil Twilight
Nautical Twilight
Astronomical Twilight
Moon
Length of Visible Light
Length of Day
Tomorrow will be .
, % of the Moon is Illuminated

Today's Extremes

State Highs State Lows

Community

WunderPhotos

Upload Photos

1,790,163 photos uploaded!

WunderBlogs® & News

Nearby

Air Quality

  Air Quality AQ Index Pollutant
Not available.

Snow Depth

Station Depth Elevation

Earthquake Activity

City Distance Mag. Time & Date
Minimum magnitude displayed is 2.5.

Coastal Water Temperatures

Place Temperature

Nearby Weather Stations